createdAt,value
2019-02-14T00:00:08.003Z,12.63
2019-02-14T00:02:38.039Z,12.80
2019-02-14T00:05:06.754Z,12.90
2019-02-14T00:07:35.541Z,12.58
2019-02-14T00:10:05.614Z,13.13
2019-02-14T00:12:34.327Z,12.70
2019-02-14T00:15:02.979Z,12.18
2019-02-14T00:17:31.678Z,12.63
2019-02-14T00:20:00.412Z,12.53
2019-02-14T00:22:29.097Z,12.00
2019-02-14T00:24:57.797Z,12.37
2019-02-14T00:27:26.600Z,12.90
2019-02-14T00:29:55.363Z,12.88
2019-02-14T00:32:24.068Z,13.40
2019-02-14T00:34:52.784Z,12.98
2019-02-14T00:37:21.460Z,13.08
2019-02-14T00:39:50.131Z,12.82
2019-02-14T00:42:18.779Z,12.53
2019-02-14T00:44:47.501Z,13.00
2019-02-14T00:47:16.156Z,12.23
2019-02-14T00:49:45.020Z,12.90
2019-02-14T00:52:13.700Z,13.05
2019-02-14T00:54:42.366Z,13.62
2019-02-14T00:57:11.028Z,13.50
2019-02-14T00:59:39.731Z,13.80
2019-02-14T01:02:08.413Z,12.70
2019-02-14T01:04:37.095Z,13.43
2019-02-14T01:07:06.000Z,13.78
2019-02-14T01:09:34.673Z,13.00
2019-02-14T01:12:03.909Z,14.07
2019-02-14T01:14:32.590Z,12.82
2019-02-14T01:17:01.353Z,14.10
2019-02-14T01:19:30.097Z,13.32
2019-02-14T01:21:58.743Z,14.20
2019-02-14T01:24:27.440Z,14.40
2019-02-14T01:26:56.102Z,15.10
2019-02-14T01:29:24.860Z,15.63
2019-02-14T01:31:53.518Z,14.83
2019-02-14T01:34:22.201Z,15.13
2019-02-14T01:36:50.873Z,15.77
2019-02-14T01:39:19.530Z,15.18
2019-02-14T01:41:48.194Z,15.43
2019-02-14T01:44:16.885Z,15.85
2019-02-14T01:46:45.608Z,15.33
2019-02-14T01:49:14.768Z,16.60
2019-02-14T01:51:43.502Z,16.30
2019-02-14T01:54:12.165Z,16.37
2019-02-14T01:56:40.920Z,17.07
2019-02-14T01:59:09.580Z,16.35
2019-02-14T02:01:38.261Z,16.35
2019-02-14T02:04:07.022Z,15.93
2019-02-14T02:06:35.752Z,15.93
2019-02-14T02:09:06.845Z,16.40
2019-02-14T02:11:35.637Z,16.50
2019-02-14T02:14:04.555Z,17.73
2019-02-14T02:16:33.219Z,16.50
2019-02-14T02:19:01.923Z,17.77
2019-02-14T02:21:30.610Z,16.57
2019-02-14T02:23:59.281Z,17.73
2019-02-14T02:26:27.975Z,16.50
2019-02-14T02:28:56.646Z,17.63
2019-02-14T02:31:25.399Z,16.75
2019-02-14T02:33:55.005Z,17.00
2019-02-14T02:36:24.748Z,18.55
2019-02-14T02:38:53.383Z,17.03
2019-02-14T02:41:22.253Z,17.77
2019-02-14T02:43:51.038Z,17.87
2019-02-14T02:46:19.827Z,17.87
2019-02-14T02:48:48.485Z,17.70
2019-02-14T02:51:17.127Z,18.35
2019-02-14T02:53:45.778Z,17.57
2019-02-14T02:56:14.425Z,18.37
2019-02-14T02:58:43.104Z,17.32
2019-02-14T03:01:11.910Z,18.05
2019-02-14T03:03:40.581Z,17.32
2019-02-14T03:06:10.825Z,17.57
2019-02-14T03:08:39.792Z,17.85
2019-02-14T03:11:08.534Z,17.12
2019-02-14T03:13:37.188Z,17.37
2019-02-14T03:16:05.855Z,17.98
2019-02-14T03:18:34.540Z,17.13
2019-02-14T03:21:03.288Z,18.90
2019-02-14T03:23:31.987Z,17.60
2019-02-14T03:26:00.709Z,18.57
2019-02-14T03:28:29.373Z,17.20
2019-02-14T03:30:58.091Z,19.57
2019-02-14T03:33:26.743Z,18.03
2019-02-14T03:35:55.386Z,18.67
2019-02-14T03:38:25.034Z,19.02
2019-02-14T03:40:53.772Z,19.00
2019-02-14T03:43:22.534Z,17.73
2019-02-14T03:45:51.181Z,19.70
2019-02-14T03:48:19.846Z,19.00
2019-02-14T03:50:48.526Z,19.15
2019-02-14T03:53:17.189Z,19.17
2019-02-14T03:55:45.837Z,18.82
2019-02-14T03:58:14.582Z,18.82
2019-02-14T04:00:43.320Z,18.60
2019-02-14T04:03:12.073Z,18.77
2019-02-14T04:05:40.829Z,18.75
2019-02-14T04:08:09.565Z,18.97
2019-02-14T04:10:38.243Z,19.37
2019-02-14T04:13:07.024Z,19.17
2019-02-14T04:15:35.694Z,19.52
2019-02-14T04:18:04.386Z,19.57
2019-02-14T04:20:33.234Z,18.95
2019-02-14T04:23:01.899Z,19.65
2019-02-14T04:25:30.679Z,19.75
2019-02-14T04:27:59.439Z,18.77
2019-02-14T04:30:28.032Z,19.32
2019-02-14T04:32:56.738Z,18.48
2019-02-14T04:35:25.419Z,19.70
2019-02-14T04:37:54.055Z,19.95
2019-02-14T04:40:22.736Z,19.50
2019-02-14T04:42:51.406Z,19.40
2019-02-14T04:45:20.050Z,19.52
2019-02-14T04:47:48.745Z,19.57
2019-02-14T04:50:17.407Z,20.07
2019-02-14T04:52:46.080Z,19.65
2019-02-14T04:55:14.763Z,19.48
2019-02-14T04:57:43.525Z,19.62
2019-02-14T05:00:12.354Z,18.25
2019-02-14T05:02:41.073Z,19.82
2019-02-14T05:05:09.746Z,19.07
2019-02-14T05:07:38.454Z,20.65
2019-02-14T05:10:07.267Z,18.87
2019-02-14T05:12:35.967Z,19.53
2019-02-14T05:15:04.934Z,20.75
2019-02-14T05:17:33.933Z,19.48
2019-02-14T05:20:02.700Z,20.23
2019-02-14T05:22:31.389Z,19.77
2019-02-14T05:25:00.251Z,19.75
2019-02-14T05:27:28.972Z,19.62
2019-02-14T05:29:57.659Z,20.35
2019-02-14T05:32:26.325Z,19.80
2019-02-14T05:34:54.983Z,20.62
2019-02-14T05:37:23.632Z,19.92
2019-02-14T05:39:52.370Z,19.87
2019-02-14T05:42:21.017Z,19.90
2019-02-14T05:44:49.778Z,20.40
2019-02-14T05:47:18.505Z,20.23
2019-02-14T05:49:47.181Z,18.55
2019-02-14T05:52:15.829Z,18.85
2019-02-14T05:54:44.601Z,20.83
2019-02-14T05:57:13.289Z,20.02
2019-02-14T05:59:41.953Z,19.47
2019-02-14T06:02:10.717Z,20.17
2019-02-14T06:04:39.401Z,19.90
2019-02-14T06:07:08.137Z,19.03
2019-02-14T06:09:36.809Z,20.07
2019-02-14T06:12:05.474Z,20.30
2019-02-14T06:14:34.243Z,20.90
2019-02-14T06:17:03.963Z,20.70
2019-02-14T06:19:32.857Z,20.52
2019-02-14T06:22:01.523Z,20.27
2019-02-14T06:24:30.273Z,20.68
2019-02-14T06:26:59.026Z,20.95
2019-02-14T06:29:27.705Z,19.98
2019-02-14T06:31:56.489Z,19.85
2019-02-14T06:34:26.225Z,19.57
2019-02-14T06:36:54.903Z,18.80
2019-02-14T06:39:23.686Z,19.70
2019-02-14T06:41:52.337Z,19.13
2019-02-14T06:44:21.027Z,18.77
2019-02-14T06:46:49.793Z,20.40
2019-02-14T06:49:18.546Z,20.62
2019-02-14T06:51:47.182Z,19.87
2019-02-14T06:54:15.854Z,19.23
2019-02-14T06:56:44.644Z,19.27
2019-02-14T06:59:13.404Z,19.45
2019-02-14T07:01:43.238Z,20.72
2019-02-14T07:04:11.913Z,19.65
2019-02-14T07:06:40.580Z,20.17
2019-02-14T07:09:09.189Z,19.92
2019-02-14T07:11:37.975Z,19.53
2019-02-14T07:14:06.651Z,19.80
2019-02-14T07:16:35.329Z,20.17
2019-02-14T07:19:04.003Z,20.55
2019-02-14T07:21:32.657Z,19.93
2019-02-14T07:24:01.447Z,19.63
2019-02-14T07:26:30.218Z,20.23
2019-02-14T07:28:58.948Z,19.20
2019-02-14T07:31:27.631Z,20.43
2019-02-14T07:33:56.347Z,20.43
2019-02-14T07:36:25.069Z,19.87
2019-02-14T07:38:53.848Z,20.57
2019-02-14T07:41:22.567Z,21.50
2019-02-14T07:43:52.225Z,20.30
2019-02-14T07:46:22.640Z,20.05
2019-02-14T07:48:51.363Z,19.93
2019-02-14T07:51:20.017Z,20.72
2019-02-14T07:53:48.765Z,19.73
2019-02-14T07:56:17.460Z,19.63
2019-02-14T07:58:46.202Z,21.50
2019-02-14T08:01:14.944Z,20.37
2019-02-14T08:03:43.676Z,20.33
2019-02-14T08:06:12.388Z,20.93
2019-02-14T08:08:41.192Z,21.40
2019-02-14T08:11:09.888Z,19.60
2019-02-14T08:13:38.556Z,20.80
2019-02-14T08:16:07.303Z,18.77
2019-02-14T08:18:35.952Z,19.90
2019-02-14T08:21:04.626Z,20.53
2019-02-14T08:23:33.287Z,20.73
2019-02-14T08:26:10.370Z,20.50
2019-02-14T08:28:32.484Z,21.17
2019-02-14T08:31:01.259Z,20.32
2019-02-14T08:33:29.994Z,21.07
2019-02-14T08:35:58.757Z,21.20
2019-02-14T08:38:27.439Z,21.48
2019-02-14T08:40:56.177Z,20.77
2019-02-14T08:43:24.851Z,21.52
2019-02-14T08:45:53.521Z,20.80
2019-02-14T08:48:22.187Z,20.20
2019-02-14T08:50:50.882Z,21.27
2019-02-14T08:53:19.660Z,20.57
2019-02-14T08:55:48.392Z,20.13
2019-02-14T08:58:17.110Z,21.35
2019-02-14T09:00:45.765Z,19.77
2019-02-14T09:03:14.451Z,20.62
2019-02-14T09:05:43.221Z,20.70
2019-02-14T09:08:11.865Z,20.30
2019-02-14T09:10:40.548Z,20.70
2019-02-14T09:13:17.019Z,19.95
2019-02-14T09:15:39.597Z,21.48
2019-02-14T09:18:08.452Z,20.13
2019-02-14T09:20:37.281Z,20.55
2019-02-14T09:23:07.096Z,21.00
2019-02-14T09:25:35.740Z,20.03
2019-02-14T09:28:04.437Z,20.12
2019-02-14T09:30:33.251Z,19.80
2019-02-14T09:33:02.067Z,20.55
2019-02-14T09:35:30.715Z,20.48
2019-02-14T09:38:03.428Z,19.87
2019-02-14T09:40:30.725Z,19.48
2019-02-14T09:42:59.393Z,19.63
2019-02-14T09:45:28.137Z,19.77
2019-02-14T09:47:56.802Z,19.30
2019-02-14T09:50:25.785Z,19.30
2019-02-14T09:52:54.483Z,18.32
2019-02-14T09:55:23.152Z,19.95
2019-02-14T09:57:51.854Z,19.82
2019-02-14T10:00:20.551Z,19.10
2019-02-14T10:02:49.311Z,19.47
2019-02-14T10:05:18.922Z,19.50
2019-02-14T10:07:47.642Z,19.53
2019-02-14T10:10:16.980Z,19.07
2019-02-14T10:12:45.750Z,19.45
2019-02-14T10:15:15.586Z,19.83
2019-02-14T10:17:44.327Z,19.77
2019-02-14T10:20:14.560Z,19.77
2019-02-14T10:22:43.394Z,19.73
2019-02-14T10:25:12.678Z,20.92
2019-02-14T10:27:41.423Z,19.02
2019-02-14T10:30:11.574Z,19.63
2019-02-14T10:32:40.209Z,19.07
2019-02-14T10:35:08.891Z,18.77
2019-02-14T10:37:37.552Z,19.50
2019-02-14T10:40:07.234Z,20.00
2019-02-14T10:42:35.932Z,19.42
2019-02-14T10:45:05.113Z,20.00
2019-02-14T10:47:33.902Z,19.20
2019-02-14T10:50:02.612Z,19.60
2019-02-14T10:52:31.297Z,18.80
2019-02-14T10:55:00.207Z,18.27
2019-02-14T10:57:28.972Z,20.25
2019-02-14T10:59:59.116Z,18.42
2019-02-14T11:02:27.758Z,18.25
2019-02-14T11:04:56.497Z,19.27
2019-02-14T11:07:25.210Z,18.02
2019-02-14T11:09:54.044Z,17.70
2019-02-14T11:12:22.742Z,17.83
2019-02-14T11:14:51.407Z,17.90
2019-02-14T11:17:20.159Z,18.13
2019-02-14T11:19:48.840Z,17.62
2019-02-14T11:22:17.576Z,17.53
2019-02-14T11:24:46.242Z,18.83
2019-02-14T11:27:14.915Z,18.23
2019-02-14T11:29:43.753Z,16.97
2019-02-14T11:32:12.429Z,17.73
2019-02-14T11:34:41.117Z,17.20
2019-02-14T11:37:09.779Z,17.48
2019-02-14T11:39:38.484Z,16.95
2019-02-14T11:42:07.291Z,16.43
2019-02-14T11:44:39.845Z,17.70
2019-02-14T11:47:07.793Z,16.62
2019-02-14T11:49:36.696Z,16.62
2019-02-14T11:52:05.383Z,17.23
2019-02-14T11:54:34.134Z,15.40
2019-02-14T11:57:02.856Z,15.00
2019-02-14T11:59:31.514Z,15.10
2019-02-14T12:02:00.215Z,15.58
2019-02-14T12:04:29.009Z,14.70
2019-02-14T12:06:57.690Z,14.83
2019-02-14T12:09:26.447Z,15.28
2019-02-14T12:11:55.132Z,14.83
2019-02-14T12:14:23.904Z,14.45
2019-02-14T12:16:52.622Z,14.78
2019-02-14T12:19:21.252Z,14.33
2019-02-14T12:21:49.939Z,13.47
2019-02-14T12:24:18.740Z,14.50
2019-02-14T12:26:47.435Z,13.93
2019-02-14T12:29:16.093Z,13.75
2019-02-14T12:31:44.778Z,13.40
2019-02-14T12:34:13.429Z,12.20
2019-02-14T12:36:42.118Z,13.65
2019-02-14T12:39:11.684Z,13.38
2019-02-14T12:41:40.625Z,13.03
2019-02-14T12:44:09.370Z,13.65
2019-02-14T12:46:38.061Z,13.70
2019-02-14T12:49:06.800Z,13.13
2019-02-14T12:51:35.551Z,11.85
2019-02-14T12:54:04.263Z,10.95
2019-02-14T12:56:32.941Z,10.38
2019-02-14T12:59:01.646Z,10.57
2019-02-14T13:01:30.333Z,10.15
2019-02-14T13:03:59.133Z,10.70
2019-02-14T13:06:27.853Z,9.23
2019-02-14T13:08:56.580Z,10.10
2019-02-14T13:11:25.285Z,9.60
2019-02-14T13:13:54.002Z,9.63
2019-02-14T13:16:22.749Z,10.10
2019-02-14T13:18:51.466Z,9.23
2019-02-14T13:21:20.223Z,8.20
2019-02-14T13:23:48.886Z,9.30
2019-02-14T13:26:18.546Z,8.88
2019-02-14T13:28:47.295Z,9.18
2019-02-14T13:31:16.030Z,9.38
2019-02-14T13:33:44.779Z,9.20
2019-02-14T13:36:14.918Z,9.23
2019-02-14T13:38:43.743Z,8.98
2019-02-14T13:41:12.454Z,8.58
2019-02-14T13:43:41.153Z,9.00
2019-02-14T13:46:09.823Z,8.85
2019-02-14T13:48:38.640Z,8.40
2019-02-14T13:51:08.050Z,8.05
2019-02-14T13:53:36.704Z,8.38
2019-02-14T13:56:05.510Z,7.70
2019-02-14T13:58:34.282Z,7.62
2019-02-14T14:01:03.457Z,7.67
2019-02-14T14:03:32.324Z,6.95
2019-02-14T14:06:01.105Z,7.83
2019-02-14T14:08:29.832Z,7.47
2019-02-14T14:10:58.521Z,6.78
2019-02-14T14:13:27.302Z,6.70
2019-02-14T14:15:56.079Z,7.28
2019-02-14T14:18:33.875Z,6.83
2019-02-14T14:21:06.283Z,6.47
2019-02-14T14:23:34.921Z,6.20
2019-02-14T14:26:03.622Z,6.47
2019-02-14T14:28:32.357Z,6.50
2019-02-14T14:31:01.163Z,6.43
2019-02-14T14:33:29.833Z,5.97
2019-02-14T14:36:00.225Z,5.72
2019-02-14T14:38:29.003Z,5.60
2019-02-14T14:40:57.766Z,6.20
2019-02-14T14:43:32.377Z,5.87
2019-02-14T14:46:09.384Z,5.83
2019-02-14T14:48:44.425Z,5.60
2019-02-14T14:51:13.091Z,6.17
2019-02-14T14:53:41.828Z,6.22
2019-02-14T14:56:10.485Z,6.30
2019-02-14T14:58:39.228Z,6.10
2019-02-14T15:01:07.905Z,6.05
2019-02-14T15:03:36.655Z,5.95
2019-02-14T15:06:08.862Z,6.05
2019-02-14T15:08:37.534Z,6.50
2019-02-14T15:11:06.267Z,6.40
2019-02-14T15:13:35.668Z,5.80
2019-02-14T15:16:04.561Z,6.53
2019-02-14T15:18:35.855Z,7.10
2019-02-14T15:21:04.561Z,6.85
2019-02-14T15:23:33.296Z,6.15
2019-02-14T15:26:02.086Z,6.67
2019-02-14T15:28:30.838Z,6.62
2019-02-14T15:30:59.645Z,6.67
2019-02-14T15:33:28.402Z,6.67
2019-02-14T15:35:57.129Z,7.33
2019-02-14T15:38:25.879Z,6.70
2019-02-14T15:40:54.645Z,7.85
2019-02-14T15:43:23.532Z,6.33
2019-02-14T15:45:52.290Z,6.90
2019-02-14T15:48:21.065Z,6.75
2019-02-14T15:50:51.500Z,6.80
2019-02-14T15:53:21.495Z,6.28
2019-02-14T15:55:50.482Z,6.40
2019-02-14T15:58:19.193Z,6.92
2019-02-14T16:00:49.555Z,6.50
2019-02-14T16:03:19.645Z,6.03
2019-02-14T16:05:48.461Z,7.20
2019-02-14T16:08:17.227Z,7.15
2019-02-14T16:10:45.993Z,7.25
2019-02-14T16:13:14.711Z,7.17
2019-02-14T16:15:43.532Z,6.85
2019-02-14T16:18:12.238Z,7.47
2019-02-14T16:20:42.525Z,7.12
2019-02-14T16:23:11.377Z,7.22
2019-02-14T16:25:40.050Z,7.35
2019-02-14T16:28:09.887Z,7.20
2019-02-14T16:30:39.299Z,6.92
2019-02-14T16:33:08.031Z,6.83
2019-02-14T16:35:36.737Z,7.00
2019-02-14T16:38:05.400Z,6.90
2019-02-14T16:40:38.589Z,7.37
2019-02-14T16:43:04.489Z,7.20
2019-02-14T16:45:33.188Z,7.95
2019-02-14T16:48:02.011Z,7.70
2019-02-14T16:50:30.739Z,7.53
2019-02-14T16:52:59.424Z,8.13
2019-02-14T16:55:28.166Z,7.53
2019-02-14T16:57:56.873Z,7.15
2019-02-14T17:00:25.587Z,7.72
2019-02-14T17:02:54.314Z,7.30
2019-02-14T17:05:23.045Z,7.92
2019-02-14T17:07:51.712Z,8.03
2019-02-14T17:10:20.485Z,7.20
2019-02-14T17:12:49.252Z,7.62
2019-02-14T17:15:17.942Z,7.08
2019-02-14T17:17:46.641Z,6.95
2019-02-14T17:20:15.330Z,7.75
2019-02-14T17:22:44.096Z,8.17
2019-02-14T17:25:17.129Z,8.53
2019-02-14T17:27:45.625Z,7.83
2019-02-14T17:30:14.515Z,7.95
2019-02-14T17:32:43.375Z,8.38
2019-02-14T17:35:12.079Z,8.13
2019-02-14T17:37:40.770Z,7.62
2019-02-14T17:40:09.525Z,8.73
2019-02-14T17:42:38.262Z,7.92
2019-02-14T17:45:07.032Z,8.10
2019-02-14T17:47:36.151Z,7.65
2019-02-14T17:50:05.113Z,7.80
2019-02-14T17:52:33.958Z,7.67
2019-02-14T17:55:02.761Z,7.35
2019-02-14T17:57:31.481Z,7.67
2019-02-14T18:00:00.321Z,8.03
2019-02-14T18:02:29.158Z,7.62
2019-02-14T18:04:57.893Z,7.55
2019-02-14T18:07:26.630Z,8.45
2019-02-14T18:09:59.584Z,8.35
2019-02-14T18:12:29.002Z,7.35
2019-02-14T18:14:58.070Z,6.92
2019-02-14T18:17:27.047Z,7.20
2019-02-14T18:19:55.708Z,7.87
2019-02-14T18:22:24.459Z,8.05
2019-02-14T18:24:53.193Z,7.55
2019-02-14T18:27:22.107Z,8.05
2019-02-14T18:29:50.927Z,7.58
2019-02-14T18:32:19.686Z,7.70
2019-02-14T18:34:48.470Z,7.80
2019-02-14T18:37:17.178Z,7.62
2019-02-14T18:39:46.044Z,8.43
2019-02-14T18:42:14.803Z,8.10
2019-02-14T18:44:43.506Z,8.33
2019-02-14T18:47:12.449Z,8.30
2019-02-14T18:49:41.239Z,8.55
2019-02-14T18:52:10.189Z,7.70
2019-02-14T18:54:38.977Z,8.85
2019-02-14T18:57:07.740Z,7.20
2019-02-14T18:59:36.460Z,8.23
2019-02-14T19:02:05.308Z,8.40
2019-02-14T19:04:34.068Z,8.35
2019-02-14T19:07:02.961Z,8.45
2019-02-14T19:09:31.844Z,8.17
2019-02-14T19:12:00.656Z,8.85
2019-02-14T19:14:29.431Z,8.93
2019-02-14T19:16:58.171Z,8.30
2019-02-14T19:19:27.050Z,9.15
2019-02-14T19:21:55.761Z,8.15
2019-02-14T19:24:27.515Z,8.68
2019-02-14T19:26:56.244Z,8.48
2019-02-14T19:29:25.231Z,8.73
2019-02-14T19:31:54.059Z,8.30
2019-02-14T19:34:23.027Z,8.20
2019-02-14T19:36:51.990Z,8.45
2019-02-14T19:39:20.915Z,8.33
2019-02-14T19:41:49.966Z,8.73
2019-02-14T19:44:18.649Z,7.90
2019-02-14T19:46:49.785Z,8.53
2019-02-14T19:49:17.881Z,8.55
2019-02-14T19:51:46.670Z,7.75
2019-02-14T19:54:15.465Z,8.75
2019-02-14T19:56:44.297Z,8.88
2019-02-14T19:59:13.106Z,8.40
2019-02-14T20:01:42.014Z,9.30
2019-02-14T20:04:10.712Z,9.58
2019-02-14T20:06:39.435Z,8.88
2019-02-14T20:09:08.252Z,8.48
2019-02-14T20:11:37.495Z,9.20
2019-02-14T20:14:06.444Z,8.23
2019-02-14T20:16:35.221Z,9.03
2019-02-14T20:19:04.015Z,8.43
2019-02-14T20:21:32.827Z,8.03
2019-02-14T20:24:01.605Z,8.85
2019-02-14T20:26:31.699Z,9.08
2019-02-14T20:29:00.462Z,8.25
2019-02-14T20:31:29.322Z,8.48
2019-02-14T20:33:58.145Z,8.58
2019-02-14T20:36:26.926Z,8.73
2019-02-14T20:38:55.761Z,8.35
2019-02-14T20:41:24.578Z,8.90
2019-02-14T20:43:53.304Z,8.95
2019-02-14T20:46:22.105Z,8.78
2019-02-14T20:48:51.159Z,9.30
2019-02-14T20:51:19.949Z,9.73
2019-02-14T20:53:48.738Z,9.08
2019-02-14T20:56:17.522Z,8.88
2019-02-14T20:58:46.383Z,8.70
2019-02-14T21:01:15.278Z,10.70
2019-02-14T21:03:44.080Z,9.95
2019-02-14T21:06:13.083Z,9.88
2019-02-14T21:08:42.382Z,9.70
2019-02-14T21:11:11.159Z,9.93
2019-02-14T21:13:39.849Z,10.32
2019-02-14T21:16:08.625Z,10.03
2019-02-14T21:18:37.385Z,10.88
2019-02-14T21:21:06.451Z,10.38
2019-02-14T21:23:35.313Z,10.32
2019-02-14T21:26:04.122Z,10.48
2019-02-14T21:28:32.915Z,9.75
2019-02-14T21:31:01.706Z,10.00
2019-02-14T21:33:30.518Z,9.98
2019-02-14T21:35:59.625Z,9.98
2019-02-14T21:38:28.522Z,9.85
2019-02-14T21:40:57.264Z,9.75
2019-02-14T21:43:26.297Z,10.43
2019-02-14T21:45:55.102Z,9.08
2019-02-14T21:48:23.933Z,9.30
2019-02-14T21:50:52.696Z,9.25
2019-02-14T21:53:22.467Z,9.53
2019-02-14T21:55:51.233Z,8.98
2019-02-14T21:58:20.066Z,8.73
2019-02-14T22:00:48.924Z,8.75
2019-02-14T22:03:17.683Z,9.10
2019-02-14T22:05:46.453Z,9.15
2019-02-14T22:08:15.261Z,9.50
2019-02-14T22:10:44.043Z,8.48
2019-02-14T22:13:12.829Z,8.65
2019-02-14T22:15:41.610Z,9.48
2019-02-14T22:18:11.017Z,8.68
2019-02-14T22:20:39.837Z,8.65
2019-02-14T22:23:08.490Z,9.50
2019-02-14T22:25:37.552Z,8.90
2019-02-14T22:28:06.358Z,10.03
2019-02-14T22:30:35.181Z,9.70
2019-02-14T22:33:03.925Z,8.85
2019-02-14T22:35:32.705Z,9.50
2019-02-14T22:38:01.364Z,9.35
2019-02-14T22:40:30.208Z,8.78
2019-02-14T22:42:58.888Z,8.70
2019-02-14T22:45:30.035Z,9.23
2019-02-14T22:47:58.714Z,9.58
2019-02-14T22:50:27.428Z,8.75
2019-02-14T22:52:56.089Z,8.70
2019-02-14T22:55:24.775Z,9.85
2019-02-14T22:57:53.522Z,9.48
2019-02-14T23:00:29.914Z,9.55
2019-02-14T23:03:00.260Z,8.95
2019-02-14T23:05:28.926Z,8.85
2019-02-14T23:07:57.678Z,9.20
2019-02-14T23:10:26.429Z,8.30
2019-02-14T23:12:56.047Z,9.50
2019-02-14T23:15:25.143Z,9.43
2019-02-14T23:17:53.906Z,8.80
2019-02-14T23:20:22.588Z,9.48
2019-02-14T23:22:51.247Z,8.85
2019-02-14T23:25:19.938Z,8.75
2019-02-14T23:27:48.628Z,9.83
2019-02-14T23:30:17.256Z,9.18
2019-02-14T23:32:45.864Z,9.50
2019-02-14T23:35:14.539Z,8.33
2019-02-14T23:37:43.320Z,9.10
2019-02-14T23:40:12.098Z,9.05
2019-02-14T23:42:43.827Z,8.55
2019-02-14T23:45:12.561Z,8.65
2019-02-14T23:47:41.292Z,8.80
2019-02-14T23:50:10.011Z,8.20
2019-02-14T23:52:38.784Z,8.05
2019-02-14T23:55:07.665Z,8.87
2019-02-14T23:57:36.345Z,8.60
